Terminal Aerodrome Forecast
Issued by NWS Indianapolis, IN

Home | Current Version | Previous Version | Text Only | Print | Product List | Glossary On
Versions: 1 2 3 4 5 6 7 8 9 10 11 12 13 14 15 16 17 18 19 20 21 22 23 24 25
000
FTUS43 KIND 280220 AAA
TAFIND
TAF AMD
KIND 280220Z 2802/2906 12006KT P6SM SCT060 BKN250
     FM280300 14004KT P6SM SCT250
     FM281500 15006KT P6SM SCT120 BKN250=

USA.gov is the U.S. government's official web portal to all federal, state and local government web resources and services.